Wauregan, Connecticut
Current Conditions -  °F | °C
As of 6:52 PM on Wednesday 28 Jan 2015 (Local Time) from KIJD Reporting Station
Clear Clear  
Wind Chill: -9°   Ceiling: Unl
Heat Index: -5°   Visibility: 10mi
Dew Point: -13°   Wind: 6mph
Humidity: 53%   Direction: 320°NW
Pressure: 30.14"   Gusts: NA
Location:  41.75°N, 71.91°W
Report Text: KIJD 282352Z AUTO 32005KT 10SM CLR M05/M13 A3014 RMK AO2 SLP209 T10501133 11028 21067 53030
Loading
Personal Weather Stations






























Interactive Weather Map New forecast layout! Learn more

10-Day Weather Forecast

Advertisements
Track Severe Weather on mobile